Weather at Newport Regional Airport

Public forecast

Using degrees Fahrenheit for public forecast. Weather courtesy of forecast.io.

Current aviation weather report (METAR) for Newport Regional Airport

Retrieved UTC (0 seconds ago):

Closest aviation forecast (TAF) to Newport Regional Airport

Closest forecast is Jonesboro Municipal Airport, 28.3 nm (52.5 km) ENE. Retrieved 2020/10/28 06:22 UTC (53 minutes ago):

TAF KJBR 280520Z 2806/2906 04008KT 3SM BR OVC003 FM280700 04006KT 2SM BR OVC003 FM281300 04009KT 6SM -SHRA OVC005 FM290500 03013KT 4SM -SHRA OVC003